Forest Grove, Pennsylvania
Current Conditions -  °F | °C
As of 8:54 AM on Friday 24 Oct 2014 (Local Time) from KDYL Reporting Station
Overcast Overcast  
Wind Chill: 54°   Ceiling: 3400
Heat Index: 54°   Visibility: 10mi
Dew Point: 43°   Wind: 12mph
Humidity: 66%   Direction: 350°N
Pressure: 29.86"   Gusts: 21mph
Location:  40.29°N, 75.05°W
Report Text: KDYL 241254Z AUTO 35010G18KT 10SM OVC034 12/06 A2986 RMK AO2 SLP112 T01220061
Loading
Personal Weather Stations






























Interactive Weather Map
Tropical Storm Tracking
New forecast layout! Learn more

10-Day Weather Forecast

Advertisements
Track Severe Weather on mobile